sensor_id;sensor_type;location;lat;lon;timestamp;P1;durP1;ratioP1;P2;durP2;ratioP2
72065;SDS011;59939;52.516;13.420;2023-03-26T00:01:37;8.47;;;7.10;;
72065;SDS011;59939;52.516;13.420;2023-03-26T00:04:41;10.00;;;6.53;;
72065;SDS011;59939;52.516;13.420;2023-03-26T00:07:47;8.87;;;4.53;;
72065;SDS011;59939;52.516;13.420;2023-03-26T00:10:51;11.23;;;4.47;;
72065;SDS011;59939;52.516;13.420;2023-03-26T00:13:55;6.50;;;3.40;;
72065;SDS011;59939;52.516;13.420;2023-03-26T00:17:02;6.20;;;3.73;;
72065;SDS011;59939;52.516;13.420;2023-03-26T00:20:12;7.83;;;3.50;;
72065;SDS011;59939;52.516;13.420;2023-03-26T00:23:16;5.63;;;3.40;;
72065;SDS011;59939;52.516;13.420;2023-03-26T00:26:27;4.97;;;3.40;;
72065;SDS011;59939;52.516;13.420;2023-03-26T00:29:36;6.80;;;3.90;;
72065;SDS011;59939;52.516;13.420;2023-03-26T00:32:43;6.07;;;3.53;;
72065;SDS011;59939;52.516;13.420;2023-03-26T00:35:51;9.73;;;3.83;;
72065;SDS011;59939;52.516;13.420;2023-03-26T00:39:10;9.50;;;4.00;;
72065;SDS011;59939;52.516;13.420;2023-03-26T00:42:14;7.47;;;3.93;;
72065;SDS011;59939;52.516;13.420;2023-03-26T00:45:18;4.63;;;3.20;;
72065;SDS011;59939;52.516;13.420;2023-03-26T00:48:24;7.10;;;3.73;;
72065;SDS011;59939;52.516;13.420;2023-03-26T00:51:41;8.90;;;3.27;;
72065;SDS011;59939;52.516;13.420;2023-03-26T00:54:47;5.80;;;3.43;;
72065;SDS011;59939;52.516;13.420;2023-03-26T00:57:53;10.00;;;4.17;;
72065;SDS011;59939;52.516;13.420;2023-03-26T01:01:02;7.97;;;3.93;;
72065;SDS011;59939;52.516;13.420;2023-03-26T01:04:19;6.10;;;3.40;;
72065;SDS011;59939;52.516;13.420;2023-03-26T01:07:24;3.33;;;3.03;;
72065;SDS011;59939;52.516;13.420;2023-03-26T01:10:31;4.53;;;3.30;;
72065;SDS011;59939;52.516;13.420;2023-03-26T01:14:07;7.87;;;3.63;;
72065;SDS011;59939;52.516;13.420;2023-03-26T01:17:09;5.30;;;3.50;;
72065;SDS011;59939;52.516;13.420;2023-03-26T01:20:17;6.17;;;3.60;;
72065;SDS011;59939;52.516;13.420;2023-03-26T01:23:23;7.80;;;4.00;;
72065;SDS011;59939;52.516;13.420;2023-03-26T01:36:54;4.40;;;3.23;;
72065;SDS011;59939;52.516;13.420;2023-03-26T01:40:04;7.17;;;3.23;;
72065;SDS011;59939;52.516;13.420;2023-03-26T01:43:20;8.53;;;6.90;;
72065;SDS011;59939;52.516;13.420;2023-03-26T01:46:29;32.73;;;30.83;;
72065;SDS011;59939;52.516;13.420;2023-03-26T01:49:37;44.50;;;42.27;;
72065;SDS011;59939;52.516;13.420;2023-03-26T01:52:48;57.00;;;54.40;;
72065;SDS011;59939;52.516;13.420;2023-03-26T02:05:48;37.00;;;35.00;;
72065;SDS011;59939;52.516;13.420;2023-03-26T02:08:58;29.43;;;27.73;;
72065;SDS011;59939;52.516;13.420;2023-03-26T02:12:05;33.20;;;30.80;;
72065;SDS011;59939;52.516;13.420;2023-03-26T02:15:10;33.40;;;31.60;;
72065;SDS011;59939;52.516;13.420;2023-03-26T02:18:14;33.97;;;32.17;;
72065;SDS011;59939;52.516;13.420;2023-03-26T02:21:19;28.97;;;27.27;;
72065;SDS011;59939;52.516;13.420;2023-03-26T02:24:24;18.77;;;17.17;;
72065;SDS011;59939;52.516;13.420;2023-03-26T02:27:31;6.40;;;5.90;;
72065;SDS011;59939;52.516;13.420;2023-03-26T02:30:50;5.73;;;3.23;;
72065;SDS011;59939;52.516;13.420;2023-03-26T02:33:55;7.60;;;2.50;;
72065;SDS011;59939;52.516;13.420;2023-03-26T02:37:00;5.93;;;2.80;;
72065;SDS011;59939;52.516;13.420;2023-03-26T02:40:08;3.67;;;2.73;;
72065;SDS011;59939;52.516;13.420;2023-03-26T02:43:17;5.57;;;2.77;;
72065;SDS011;59939;52.516;13.420;2023-03-26T02:46:20;5.93;;;2.80;;
72065;SDS011;59939;52.516;13.420;2023-03-26T02:49:34;6.83;;;3.00;;
72065;SDS011;59939;52.516;13.420;2023-03-26T02:52:38;3.53;;;2.40;;
72065;SDS011;59939;52.516;13.420;2023-03-26T02:55:43;11.23;;;3.00;;
72065;SDS011;59939;52.516;13.420;2023-03-26T02:58:49;8.00;;;3.43;;
72065;SDS011;59939;52.516;13.420;2023-03-26T03:01:56;3.00;;;2.20;;
72065;SDS011;59939;52.516;13.420;2023-03-26T03:05:09;6.03;;;3.00;;
72065;SDS011;59939;52.516;13.420;2023-03-26T03:08:15;4.80;;;2.50;;
72065;SDS011;59939;52.516;13.420;2023-03-26T03:11:36;4.27;;;2.27;;
72065;SDS011;59939;52.516;13.420;2023-03-26T03:14:41;7.60;;;3.03;;
72065;SDS011;59939;52.516;13.420;2023-03-26T03:17:45;6.43;;;2.70;;
72065;SDS011;59939;52.516;13.420;2023-03-26T03:20:50;6.57;;;2.60;;
72065;SDS011;59939;52.516;13.420;2023-03-26T03:23:56;6.07;;;2.70;;
72065;SDS011;59939;52.516;13.420;2023-03-26T03:27:01;6.20;;;2.90;;
72065;SDS011;59939;52.516;13.420;2023-03-26T03:30:11;7.07;;;3.30;;
72065;SDS011;59939;52.516;13.420;2023-03-26T03:33:22;5.30;;;2.80;;
72065;SDS011;59939;52.516;13.420;2023-03-26T03:36:26;8.53;;;3.60;;
72065;SDS011;59939;52.516;13.420;2023-03-26T03:43:14;7.63;;;3.13;;
72065;SDS011;59939;52.516;13.420;2023-03-26T03:46:28;8.30;;;3.03;;
72065;SDS011;59939;52.516;13.420;2023-03-26T03:49:32;4.27;;;2.83;;
72065;SDS011;59939;52.516;13.420;2023-03-26T03:52:36;5.60;;;3.00;;
72065;SDS011;59939;52.516;13.420;2023-03-26T03:55:40;9.60;;;3.23;;
72065;SDS011;59939;52.516;13.420;2023-03-26T03:58:45;7.17;;;3.50;;
72065;SDS011;59939;52.516;13.420;2023-03-26T04:02:09;6.07;;;3.30;;
72065;SDS011;59939;52.516;13.420;2023-03-26T04:05:22;5.27;;;2.87;;
72065;SDS011;59939;52.516;13.420;2023-03-26T04:08:28;7.40;;;3.13;;
72065;SDS011;59939;52.516;13.420;2023-03-26T04:11:32;8.87;;;3.40;;
72065;SDS011;59939;52.516;13.420;2023-03-26T04:14:58;6.27;;;3.03;;
72065;SDS011;59939;52.516;13.420;2023-03-26T04:18:02;6.80;;;3.40;;
72065;SDS011;59939;52.516;13.420;2023-03-26T04:21:06;3.30;;;2.63;;
72065;SDS011;59939;52.516;13.420;2023-03-26T04:24:10;9.00;;;3.00;;
72065;SDS011;59939;52.516;13.420;2023-03-26T04:27:34;8.00;;;3.37;;
72065;SDS011;59939;52.516;13.420;2023-03-26T04:31:00;6.80;;;3.27;;
72065;SDS011;59939;52.516;13.420;2023-03-26T04:34:24;8.67;;;3.47;;
72065;SDS011;59939;52.516;13.420;2023-03-26T04:37:36;10.60;;;2.80;;
72065;SDS011;59939;52.516;13.420;2023-03-26T04:40:51;6.30;;;3.00;;
72065;SDS011;59939;52.516;13.420;2023-03-26T04:44:13;5.33;;;2.80;;
72065;SDS011;59939;52.516;13.420;2023-03-26T04:47:29;5.90;;;3.00;;
72065;SDS011;59939;52.516;13.420;2023-03-26T04:50:33;8.33;;;3.20;;
72065;SDS011;59939;52.516;13.420;2023-03-26T04:53:39;6.10;;;3.03;;
72065;SDS011;59939;52.516;13.420;2023-03-26T04:57:00;5.63;;;2.63;;
72065;SDS011;59939;52.516;13.420;2023-03-26T05:00:19;6.30;;;3.30;;
72065;SDS011;59939;52.516;13.420;2023-03-26T05:03:30;7.90;;;2.80;;
72065;SDS011;59939;52.516;13.420;2023-03-26T05:06:45;5.23;;;2.80;;
72065;SDS011;59939;52.516;13.420;2023-03-26T05:10:12;7.30;;;3.13;;
72065;SDS011;59939;52.516;13.420;2023-03-26T05:13:28;8.53;;;2.60;;
72065;SDS011;59939;52.516;13.420;2023-03-26T05:16:39;7.83;;;2.50;;
72065;SDS011;59939;52.516;13.420;2023-03-26T05:19:44;7.43;;;2.70;;
72065;SDS011;59939;52.516;13.420;2023-03-26T05:22:49;8.07;;;2.70;;
72065;SDS011;59939;52.516;13.420;2023-03-26T05:26:06;9.23;;;2.83;;
72065;SDS011;59939;52.516;13.420;2023-03-26T05:29:11;3.40;;;2.40;;
72065;SDS011;59939;52.516;13.420;2023-03-26T05:32:20;7.70;;;3.00;;
72065;SDS011;59939;52.516;13.420;2023-03-26T05:35:26;7.30;;;2.90;;
72065;SDS011;59939;52.516;13.420;2023-03-26T05:38:33;6.00;;;2.73;;
72065;SDS011;59939;52.516;13.420;2023-03-26T05:41:39;7.60;;;3.00;;
72065;SDS011;59939;52.516;13.420;2023-03-26T05:44:44;7.47;;;2.60;;
72065;SDS011;59939;52.516;13.420;2023-03-26T05:47:56;6.70;;;2.63;;
72065;SDS011;59939;52.516;13.420;2023-03-26T05:51:01;5.93;;;2.87;;
72065;SDS011;59939;52.516;13.420;2023-03-26T05:54:07;5.60;;;2.70;;
72065;SDS011;59939;52.516;13.420;2023-03-26T05:57:30;5.90;;;3.00;;
72065;SDS011;59939;52.516;13.420;2023-03-26T06:00:56;6.97;;;3.03;;
72065;SDS011;59939;52.516;13.420;2023-03-26T06:04:12;12.10;;;3.13;;
72065;SDS011;59939;52.516;13.420;2023-03-26T06:07:23;9.13;;;3.47;;
72065;SDS011;59939;52.516;13.420;2023-03-26T06:10:43;9.10;;;3.13;;
72065;SDS011;59939;52.516;13.420;2023-03-26T06:13:55;5.90;;;3.00;;
72065;SDS011;59939;52.516;13.420;2023-03-26T06:16:58;10.50;;;3.50;;
72065;SDS011;59939;52.516;13.420;2023-03-26T06:20:03;4.97;;;3.20;;
72065;SDS011;59939;52.516;13.420;2023-03-26T06:23:14;8.00;;;3.73;;
72065;SDS011;59939;52.516;13.420;2023-03-26T06:26:39;6.40;;;3.20;;
72065;SDS011;59939;52.516;13.420;2023-03-26T06:29:59;11.13;;;3.20;;
72065;SDS011;59939;52.516;13.420;2023-03-26T06:33:14;7.50;;;3.60;;
72065;SDS011;59939;52.516;13.420;2023-03-26T06:36:25;6.10;;;3.40;;
72065;SDS011;59939;52.516;13.420;2023-03-26T06:39:30;5.80;;;3.50;;
72065;SDS011;59939;52.516;13.420;2023-03-26T06:42:51;8.83;;;3.90;;
72065;SDS011;59939;52.516;13.420;2023-03-26T06:46:13;9.20;;;3.70;;
72065;SDS011;59939;52.516;13.420;2023-03-26T06:49:41;10.20;;;7.53;;
72065;SDS011;59939;52.516;13.420;2023-03-26T06:53:09;12.67;;;11.27;;
72065;SDS011;59939;52.516;13.420;2023-03-26T06:56:33;14.13;;;11.10;;
72065;SDS011;59939;52.516;13.420;2023-03-26T06:59:58;10.83;;;5.90;;
72065;SDS011;59939;52.516;13.420;2023-03-26T07:03:24;7.53;;;4.60;;
72065;SDS011;59939;52.516;13.420;2023-03-26T07:06:47;10.90;;;4.70;;
72065;SDS011;59939;52.516;13.420;2023-03-26T07:10:37;8.77;;;4.57;;
72065;SDS011;59939;52.516;13.420;2023-03-26T07:14:02;9.13;;;4.27;;
72065;SDS011;59939;52.516;13.420;2023-03-26T07:17:25;6.73;;;4.60;;
72065;SDS011;59939;52.516;13.420;2023-03-26T07:20:38;5.63;;;4.10;;
72065;SDS011;59939;52.516;13.420;2023-03-26T07:23:42;6.93;;;4.70;;
72065;SDS011;59939;52.516;13.420;2023-03-26T07:27:15;11.97;;;4.40;;
72065;SDS011;59939;52.516;13.420;2023-03-26T07:30:41;4.73;;;4.03;;
72065;SDS011;59939;52.516;13.420;2023-03-26T07:37:54;6.47;;;4.20;;
72065;SDS011;59939;52.516;13.420;2023-03-26T07:41:27;7.10;;;4.50;;
72065;SDS011;59939;52.516;13.420;2023-03-26T07:44:58;4.80;;;4.30;;
72065;SDS011;59939;52.516;13.420;2023-03-26T07:48:25;6.53;;;4.27;;
72065;SDS011;59939;52.516;13.420;2023-03-26T07:51:50;7.47;;;4.00;;
72065;SDS011;59939;52.516;13.420;2023-03-26T07:55:16;6.17;;;4.47;;
72065;SDS011;59939;52.516;13.420;2023-03-26T07:58:44;5.53;;;4.13;;
72065;SDS011;59939;52.516;13.420;2023-03-26T08:05:40;6.60;;;4.00;;
72065;SDS011;59939;52.516;13.420;2023-03-26T08:09:12;5.60;;;4.50;;
72065;SDS011;59939;52.516;13.420;2023-03-26T08:12:24;12.90;;;4.93;;
72065;SDS011;59939;52.516;13.420;2023-03-26T08:15:34;8.87;;;4.17;;
72065;SDS011;59939;52.516;13.420;2023-03-26T08:18:55;9.43;;;4.57;;
72065;SDS011;59939;52.516;13.420;2023-03-26T08:22:15;7.93;;;4.90;;
72065;SDS011;59939;52.516;13.420;2023-03-26T08:28:33;9.57;;;5.03;;
72065;SDS011;59939;52.516;13.420;2023-03-26T08:31:40;13.43;;;4.80;;
72065;SDS011;59939;52.516;13.420;2023-03-26T08:34:46;8.07;;;4.37;;
72065;SDS011;59939;52.516;13.420;2023-03-26T08:37:52;9.43;;;5.10;;
72065;SDS011;59939;52.516;13.420;2023-03-26T08:44:17;5.63;;;4.00;;
72065;SDS011;59939;52.516;13.420;2023-03-26T08:50:49;12.27;;;5.43;;
72065;SDS011;59939;52.516;13.420;2023-03-26T08:54:04;6.30;;;4.20;;
72065;SDS011;59939;52.516;13.420;2023-03-26T08:57:23;12.30;;;4.80;;
72065;SDS011;59939;52.516;13.420;2023-03-26T09:00:38;9.80;;;4.70;;
72065;SDS011;59939;52.516;13.420;2023-03-26T09:07:15;10.70;;;4.47;;
72065;SDS011;59939;52.516;13.420;2023-03-26T09:17:12;7.20;;;4.53;;
72065;SDS011;59939;52.516;13.420;2023-03-26T09:20:42;8.53;;;4.30;;
72065;SDS011;59939;52.516;13.420;2023-03-26T09:30:12;9.83;;;4.87;;
72065;SDS011;59939;52.516;13.420;2023-03-26T09:37:24;11.47;;;5.33;;
72065;SDS011;59939;52.516;13.420;2023-03-26T09:40:35;6.43;;;4.60;;
72065;SDS011;59939;52.516;13.420;2023-03-26T09:54:00;8.00;;;3.97;;
72065;SDS011;59939;52.516;13.420;2023-03-26T09:57:09;12.60;;;4.60;;
72065;SDS011;59939;52.516;13.420;2023-03-26T10:03:37;13.40;;;4.37;;
72065;SDS011;59939;52.516;13.420;2023-03-26T10:10:14;10.30;;;4.00;;
72065;SDS011;59939;52.516;13.420;2023-03-26T10:16:37;11.20;;;4.63;;
72065;SDS011;59939;52.516;13.420;2023-03-26T10:26:31;13.73;;;5.20;;
72065;SDS011;59939;52.516;13.420;2023-03-26T10:42:40;12.13;;;5.27;;
72065;SDS011;59939;52.516;13.420;2023-03-26T10:49:10;14.00;;;5.20;;
72065;SDS011;59939;52.516;13.420;2023-03-26T10:52:21;16.00;;;5.80;;
72065;SDS011;59939;52.516;13.420;2023-03-26T10:55:45;14.33;;;6.17;;
72065;SDS011;59939;52.516;13.420;2023-03-26T10:59:04;15.90;;;6.47;;
72065;SDS011;59939;52.516;13.420;2023-03-26T11:02:28;13.17;;;6.47;;
72065;SDS011;59939;52.516;13.420;2023-03-26T11:05:43;16.10;;;6.87;;
72065;SDS011;59939;52.516;13.420;2023-03-26T11:12:13;18.07;;;6.50;;
72065;SDS011;59939;52.516;13.420;2023-03-26T11:15:23;22.00;;;7.93;;
72065;SDS011;59939;52.516;13.420;2023-03-26T11:18:44;17.90;;;6.50;;
72065;SDS011;59939;52.516;13.420;2023-03-26T11:28:32;12.77;;;6.17;;
72065;SDS011;59939;52.516;13.420;2023-03-26T11:38:37;13.40;;;7.00;;
72065;SDS011;59939;52.516;13.420;2023-03-26T11:41:46;16.37;;;6.90;;
72065;SDS011;59939;52.516;13.420;2023-03-26T11:45:03;12.23;;;5.70;;
72065;SDS011;59939;52.516;13.420;2023-03-26T11:51:40;18.63;;;8.20;;
72065;SDS011;59939;52.516;13.420;2023-03-26T11:54:45;19.93;;;7.40;;
72065;SDS011;59939;52.516;13.420;2023-03-26T11:57:54;14.63;;;7.10;;
72065;SDS011;59939;52.516;13.420;2023-03-26T12:01:12;18.43;;;7.63;;
72065;SDS011;59939;52.516;13.420;2023-03-26T12:04:37;13.80;;;6.90;;
72065;SDS011;59939;52.516;13.420;2023-03-26T12:07:55;12.57;;;6.60;;
72065;SDS011;59939;52.516;13.420;2023-03-26T12:11:01;13.80;;;5.50;;
72065;SDS011;59939;52.516;13.420;2023-03-26T12:14:06;12.20;;;6.67;;
72065;SDS011;59939;52.516;13.420;2023-03-26T12:17:13;11.57;;;5.50;;
72065;SDS011;59939;52.516;13.420;2023-03-26T12:23:35;12.03;;;5.30;;
72065;SDS011;59939;52.516;13.420;2023-03-26T12:26:40;11.93;;;4.75;;
72065;SDS011;59939;52.516;13.420;2023-03-26T12:30:08;8.43;;;4.13;;
72065;SDS011;59939;52.516;13.420;2023-03-26T12:33:15;6.55;;;3.05;;
72065;SDS011;59939;52.516;13.420;2023-03-26T12:36:23;11.68;;;3.20;;
72065;SDS011;59939;52.516;13.420;2023-03-26T12:39:31;13.18;;;3.15;;
72065;SDS011;59939;52.516;13.420;2023-03-26T12:42:39;10.38;;;2.90;;
72065;SDS011;59939;52.516;13.420;2023-03-26T12:45:43;11.80;;;2.92;;
72065;SDS011;59939;52.516;13.420;2023-03-26T12:48:59;7.40;;;2.30;;
72065;SDS011;59939;52.516;13.420;2023-03-26T12:52:08;11.45;;;3.00;;
72065;SDS011;59939;52.516;13.420;2023-03-26T13:04:45;5.13;;;2.40;;
72065;SDS011;59939;52.516;13.420;2023-03-26T13:08:16;8.85;;;3.20;;
72065;SDS011;59939;52.516;13.420;2023-03-26T13:11:31;11.48;;;2.92;;
72065;SDS011;59939;52.516;13.420;2023-03-26T13:14:43;8.48;;;2.88;;
72065;SDS011;59939;52.516;13.420;2023-03-26T13:17:57;4.80;;;2.22;;
72065;SDS011;59939;52.516;13.420;2023-03-26T13:21:07;6.10;;;2.55;;
72065;SDS011;59939;52.516;13.420;2023-03-26T13:24:19;6.40;;;2.47;;
72065;SDS011;59939;52.516;13.420;2023-03-26T13:27:44;7.10;;;2.45;;
72065;SDS011;59939;52.516;13.420;2023-03-26T13:34:48;3.25;;;1.60;;
72065;SDS011;59939;52.516;13.420;2023-03-26T13:41:01;4.53;;;1.50;;
72065;SDS011;59939;52.516;13.420;2023-03-26T13:44:21;4.23;;;1.70;;
72065;SDS011;59939;52.516;13.420;2023-03-26T13:47:28;4.13;;;1.77;;
72065;SDS011;59939;52.516;13.420;2023-03-26T13:50:43;4.90;;;1.70;;
72065;SDS011;59939;52.516;13.420;2023-03-26T13:53:55;4.87;;;2.33;;
72065;SDS011;59939;52.516;13.420;2023-03-26T13:57:04;4.03;;;1.80;;
72065;SDS011;59939;52.516;13.420;2023-03-26T14:00:19;9.10;;;2.03;;
72065;SDS011;59939;52.516;13.420;2023-03-26T14:06:43;7.93;;;2.27;;
72065;SDS011;59939;52.516;13.420;2023-03-26T14:09:57;5.43;;;2.10;;
72065;SDS011;59939;52.516;13.420;2023-03-26T14:13:19;6.67;;;2.20;;
72065;SDS011;59939;52.516;13.420;2023-03-26T14:16:28;9.90;;;2.60;;
72065;SDS011;59939;52.516;13.420;2023-03-26T14:19:41;5.97;;;1.83;;
72065;SDS011;59939;52.516;13.420;2023-03-26T14:29:55;4.82;;;1.92;;
72065;SDS011;59939;52.516;13.420;2023-03-26T14:36:52;7.88;;;1.77;;
72065;SDS011;59939;52.516;13.420;2023-03-26T14:40:17;6.53;;;3.08;;
72065;SDS011;59939;52.516;13.420;2023-03-26T14:43:32;9.85;;;2.45;;
72065;SDS011;59939;52.516;13.420;2023-03-26T14:47:00;5.70;;;2.00;;
72065;SDS011;59939;52.516;13.420;2023-03-26T14:50:18;4.60;;;1.67;;
72065;SDS011;59939;52.516;13.420;2023-03-26T14:53:30;9.10;;;2.15;;
72065;SDS011;59939;52.516;13.420;2023-03-26T15:03:11;5.82;;;1.92;;
72065;SDS011;59939;52.516;13.420;2023-03-26T15:06:42;4.25;;;1.70;;
72065;SDS011;59939;52.516;13.420;2023-03-26T15:10:09;6.57;;;1.90;;
72065;SDS011;59939;52.516;13.420;2023-03-26T15:13:36;6.40;;;1.60;;
72065;SDS011;59939;52.516;13.420;2023-03-26T15:16:56;8.20;;;1.95;;
72065;SDS011;59939;52.516;13.420;2023-03-26T15:20:17;7.82;;;1.80;;
72065;SDS011;59939;52.516;13.420;2023-03-26T15:23:33;8.50;;;2.00;;
72065;SDS011;59939;52.516;13.420;2023-03-26T15:36:32;8.65;;;2.40;;
72065;SDS011;59939;52.516;13.420;2023-03-26T15:43:11;7.40;;;2.00;;
72065;SDS011;59939;52.516;13.420;2023-03-26T16:03:27;10.23;;;2.60;;
72065;SDS011;59939;52.516;13.420;2023-03-26T16:06:46;9.00;;;2.60;;
72065;SDS011;59939;52.516;13.420;2023-03-26T16:13:26;6.80;;;2.20;;
72065;SDS011;59939;52.516;13.420;2023-03-26T16:20:17;6.30;;;1.80;;
72065;SDS011;59939;52.516;13.420;2023-03-26T16:33:19;8.17;;;2.07;;
72065;SDS011;59939;52.516;13.420;2023-03-26T16:36:36;5.63;;;1.90;;
72065;SDS011;59939;52.516;13.420;2023-03-26T16:39:40;9.47;;;2.30;;
72065;SDS011;59939;52.516;13.420;2023-03-26T16:46:25;8.23;;;2.10;;
72065;SDS011;59939;52.516;13.420;2023-03-26T16:59:30;7.33;;;2.20;;
72065;SDS011;59939;52.516;13.420;2023-03-26T17:06:03;7.70;;;2.37;;
72065;SDS011;59939;52.516;13.420;2023-03-26T17:09:16;6.60;;;2.30;;
72065;SDS011;59939;52.516;13.420;2023-03-26T17:12:49;7.97;;;2.30;;
72065;SDS011;59939;52.516;13.420;2023-03-26T17:16:14;9.90;;;2.70;;
72065;SDS011;59939;52.516;13.420;2023-03-26T17:19:27;10.57;;;2.57;;
72065;SDS011;59939;52.516;13.420;2023-03-26T17:22:41;7.23;;;2.50;;
72065;SDS011;59939;52.516;13.420;2023-03-26T17:32:58;12.13;;;2.60;;
72065;SDS011;59939;52.516;13.420;2023-03-26T17:39:16;9.33;;;2.60;;
72065;SDS011;59939;52.516;13.420;2023-03-26T17:42:25;9.07;;;2.60;;
72065;SDS011;59939;52.516;13.420;2023-03-26T17:45:30;10.53;;;2.53;;
72065;SDS011;59939;52.516;13.420;2023-03-26T17:48:38;6.13;;;2.50;;
72065;SDS011;59939;52.516;13.420;2023-03-26T17:51:46;10.47;;;3.30;;
72065;SDS011;59939;52.516;13.420;2023-03-26T17:54:53;11.20;;;3.50;;
72065;SDS011;59939;52.516;13.420;2023-03-26T17:57:58;14.37;;;3.60;;
72065;SDS011;59939;52.516;13.420;2023-03-26T18:01:05;17.37;;;4.83;;
72065;SDS011;59939;52.516;13.420;2023-03-26T18:04:16;9.77;;;3.37;;
72065;SDS011;59939;52.516;13.420;2023-03-26T18:10:54;10.33;;;3.13;;
72065;SDS011;59939;52.516;13.420;2023-03-26T18:17:11;12.53;;;3.67;;
72065;SDS011;59939;52.516;13.420;2023-03-26T18:20:27;11.17;;;3.60;;
72065;SDS011;59939;52.516;13.420;2023-03-26T18:23:36;10.63;;;3.37;;
72065;SDS011;59939;52.516;13.420;2023-03-26T18:26:47;10.70;;;3.13;;
72065;SDS011;59939;52.516;13.420;2023-03-26T18:30:01;9.37;;;3.20;;
72065;SDS011;59939;52.516;13.420;2023-03-26T18:33:19;10.23;;;2.97;;
72065;SDS011;59939;52.516;13.420;2023-03-26T18:36:24;11.60;;;3.10;;
72065;SDS011;59939;52.516;13.420;2023-03-26T18:39:28;8.00;;;2.97;;
72065;SDS011;59939;52.516;13.420;2023-03-26T18:42:32;10.00;;;3.40;;
72065;SDS011;59939;52.516;13.420;2023-03-26T18:45:36;9.57;;;3.33;;
72065;SDS011;59939;52.516;13.420;2023-03-26T18:48:43;13.07;;;3.50;;
72065;SDS011;59939;52.516;13.420;2023-03-26T18:51:48;11.17;;;3.47;;
72065;SDS011;59939;52.516;13.420;2023-03-26T18:54:59;17.83;;;4.10;;
72065;SDS011;59939;52.516;13.420;2023-03-26T18:58:25;16.73;;;3.87;;
72065;SDS011;59939;52.516;13.420;2023-03-26T19:01:37;13.53;;;3.60;;
72065;SDS011;59939;52.516;13.420;2023-03-26T19:04:44;12.27;;;3.80;;
72065;SDS011;59939;52.516;13.420;2023-03-26T19:08:02;11.20;;;3.40;;
72065;SDS011;59939;52.516;13.420;2023-03-26T19:11:08;11.47;;;3.03;;
72065;SDS011;59939;52.516;13.420;2023-03-26T19:14:14;14.77;;;3.70;;
72065;SDS011;59939;52.516;13.420;2023-03-26T19:17:20;11.50;;;3.03;;
72065;SDS011;59939;52.516;13.420;2023-03-26T19:20:26;12.97;;;2.83;;
72065;SDS011;59939;52.516;13.420;2023-03-26T19:23:31;17.20;;;3.40;;
72065;SDS011;59939;52.516;13.420;2023-03-26T19:26:35;18.60;;;3.40;;
72065;SDS011;59939;52.516;13.420;2023-03-26T19:29:41;12.10;;;3.60;;
72065;SDS011;59939;52.516;13.420;2023-03-26T19:32:51;14.77;;;3.33;;
72065;SDS011;59939;52.516;13.420;2023-03-26T19:39:15;18.73;;;4.23;;
72065;SDS011;59939;52.516;13.420;2023-03-26T19:42:33;14.53;;;3.40;;
72065;SDS011;59939;52.516;13.420;2023-03-26T19:45:39;14.20;;;3.33;;
72065;SDS011;59939;52.516;13.420;2023-03-26T19:48:45;13.33;;;3.27;;
72065;SDS011;59939;52.516;13.420;2023-03-26T19:51:49;14.10;;;3.33;;
72065;SDS011;59939;52.516;13.420;2023-03-26T19:54:59;16.30;;;3.60;;
72065;SDS011;59939;52.516;13.420;2023-03-26T19:58:04;15.43;;;3.30;;
72065;SDS011;59939;52.516;13.420;2023-03-26T20:01:14;18.80;;;3.47;;
72065;SDS011;59939;52.516;13.420;2023-03-26T20:04:19;11.77;;;3.20;;
72065;SDS011;59939;52.516;13.420;2023-03-26T20:07:23;16.43;;;3.43;;
72065;SDS011;59939;52.516;13.420;2023-03-26T20:10:39;13.80;;;3.13;;
72065;SDS011;59939;52.516;13.420;2023-03-26T20:13:43;17.10;;;4.57;;
72065;SDS011;59939;52.516;13.420;2023-03-26T20:16:47;17.77;;;3.90;;
72065;SDS011;59939;52.516;13.420;2023-03-26T20:19:51;15.50;;;3.50;;
72065;SDS011;59939;52.516;13.420;2023-03-26T20:22:59;16.23;;;3.50;;
72065;SDS011;59939;52.516;13.420;2023-03-26T20:26:04;15.37;;;3.83;;
72065;SDS011;59939;52.516;13.420;2023-03-26T20:29:08;15.67;;;4.17;;
72065;SDS011;59939;52.516;13.420;2023-03-26T20:32:15;16.97;;;4.03;;
72065;SDS011;59939;52.516;13.420;2023-03-26T20:35:23;12.83;;;3.73;;
72065;SDS011;59939;52.516;13.420;2023-03-26T20:38:26;9.10;;;3.20;;
72065;SDS011;59939;52.516;13.420;2023-03-26T20:41:43;14.23;;;3.27;;
72065;SDS011;59939;52.516;13.420;2023-03-26T20:44:47;19.03;;;3.53;;
72065;SDS011;59939;52.516;13.420;2023-03-26T20:47:58;15.53;;;3.60;;
72065;SDS011;59939;52.516;13.420;2023-03-26T20:51:07;14.10;;;3.53;;
72065;SDS011;59939;52.516;13.420;2023-03-26T20:54:25;13.20;;;3.43;;
72065;SDS011;59939;52.516;13.420;2023-03-26T20:57:33;20.77;;;4.30;;
72065;SDS011;59939;52.516;13.420;2023-03-26T21:00:37;21.27;;;4.00;;
72065;SDS011;59939;52.516;13.420;2023-03-26T21:03:41;12.73;;;3.10;;
72065;SDS011;59939;52.516;13.420;2023-03-26T21:06:46;20.77;;;3.97;;
72065;SDS011;59939;52.516;13.420;2023-03-26T21:09:53;17.23;;;3.70;;
72065;SDS011;59939;52.516;13.420;2023-03-26T21:13:03;17.63;;;3.93;;
72065;SDS011;59939;52.516;13.420;2023-03-26T21:16:08;21.33;;;4.20;;
72065;SDS011;59939;52.516;13.420;2023-03-26T21:19:16;17.10;;;3.40;;
72065;SDS011;59939;52.516;13.420;2023-03-26T21:22:24;15.30;;;3.80;;
72065;SDS011;59939;52.516;13.420;2023-03-26T21:25:35;17.80;;;4.10;;
72065;SDS011;59939;52.516;13.420;2023-03-26T21:28:48;14.17;;;3.07;;
72065;SDS011;59939;52.516;13.420;2023-03-26T21:31:54;18.30;;;3.43;;
72065;SDS011;59939;52.516;13.420;2023-03-26T21:35:00;15.70;;;3.63;;
72065;SDS011;59939;52.516;13.420;2023-03-26T21:38:13;22.40;;;3.63;;
72065;SDS011;59939;52.516;13.420;2023-03-26T21:41:24;19.47;;;3.90;;
72065;SDS011;59939;52.516;13.420;2023-03-26T21:44:28;18.07;;;3.30;;
72065;SDS011;59939;52.516;13.420;2023-03-26T21:47:34;15.80;;;3.63;;
72065;SDS011;59939;52.516;13.420;2023-03-26T21:50:38;16.07;;;4.50;;
72065;SDS011;59939;52.516;13.420;2023-03-26T21:53:45;18.40;;;3.90;;
72065;SDS011;59939;52.516;13.420;2023-03-26T21:56:59;14.97;;;3.13;;
72065;SDS011;59939;52.516;13.420;2023-03-26T22:00:11;22.20;;;4.00;;
72065;SDS011;59939;52.516;13.420;2023-03-26T22:06:44;10.80;;;3.13;;
72065;SDS011;59939;52.516;13.420;2023-03-26T22:10:03;20.00;;;4.50;;
72065;SDS011;59939;52.516;13.420;2023-03-26T22:13:08;15.63;;;3.40;;
72065;SDS011;59939;52.516;13.420;2023-03-26T22:16:12;12.33;;;3.30;;
72065;SDS011;59939;52.516;13.420;2023-03-26T22:19:18;14.90;;;3.60;;
72065;SDS011;59939;52.516;13.420;2023-03-26T22:22:22;20.40;;;3.73;;
72065;SDS011;59939;52.516;13.420;2023-03-26T22:25:28;18.83;;;3.37;;
72065;SDS011;59939;52.516;13.420;2023-03-26T22:28:32;13.53;;;3.33;;
72065;SDS011;59939;52.516;13.420;2023-03-26T22:31:39;20.67;;;3.63;;
72065;SDS011;59939;52.516;13.420;2023-03-26T22:34:48;21.63;;;4.37;;
72065;SDS011;59939;52.516;13.420;2023-03-26T22:37:58;16.20;;;3.23;;
72065;SDS011;59939;52.516;13.420;2023-03-26T22:41:05;18.53;;;4.23;;
72065;SDS011;59939;52.516;13.420;2023-03-26T22:44:09;15.70;;;3.40;;
72065;SDS011;59939;52.516;13.420;2023-03-26T22:47:21;15.47;;;3.67;;
72065;SDS011;59939;52.516;13.420;2023-03-26T22:50:25;14.67;;;3.30;;
72065;SDS011;59939;52.516;13.420;2023-03-26T22:53:29;19.83;;;3.60;;
72065;SDS011;59939;52.516;13.420;2023-03-26T22:56:35;13.80;;;3.40;;
72065;SDS011;59939;52.516;13.420;2023-03-26T22:59:40;18.30;;;3.53;;
72065;SDS011;59939;52.516;13.420;2023-03-26T23:02:44;16.20;;;3.43;;